Portada
METAR-TAF:

METAR-TAF

Aeropuertos :

Aeropuerto de Ibiza

Ibiza, España

latitud: 38-52N, longitud: 001-23E, altitud: 7 m

Observación

El informe se hizo hace 39 minutos, a las 18:30 UTC
Viento 3 kt del norte, variando entre norte-noroeste y norte-noreste
Temperatura 14°C
Humedad 88%
Presión 1017 hPa
Visibilidad 10 km o más
Escasas nubes a una altura de 2900 ft

METAR: LEIB 291830Z 35003KT 330V030 9999 FEW029 14/12 Q1017 NOSIG

Hora: 20:09 (19:09 UTC)

Pronóstico

El informe se hizo hace 5 horas y 9 minutos, a las 14:00 UTC
Pronóstico válido del 29 a las 15 UTC al 30 a las 15 UTC
Viento 9 kt del norte-noroeste
Visibilidad 10 km o más
Escasas nubes a una altura de 2000 ft
Cielo nuboso a una altura de 3000 ft

TAF: LEIB 291400Z 2915/3015 33009KT 9999 FEW020 BKN030 TX19/3012Z TN11/3006Z

Observaciones y pronósticos meteorológicos de más de 4000 aeropuertos (mensajes METAR y TAF).

Los puntos amarillos y rojos representan las estaciones disponibles.

Ponga el ratón en el punto deseado para ver el nombre de la estación.

Haga clic para ver las observaciones y los pronósticos meteorológicos.

Para cambiar el mapa : haga clic en los botones verdes con una cruz de color negro para hacer un zoom, en el botón verde con un guión para alejar o en las flechas verdes para mapas adyacentes.


METAR-TAF: